San Antonio, Texas
Traffic Map
Current Weather Conditions
San Antonio, Texas
Few Clouds
Few Clouds
54°
Feels Like: 54°
Wind Chill: 54° Ceiling: Unl
Heat Index: 54° Visibility: 10mi
Dew Point: 32° Wind: 5mph
Humidity: 43% Direction: 320° (NW)
Pressure: 30.28in Gusts: 0mph
Raw Report DataKSAT 130051Z 32004KT 10SM FEW250 12/00 A3028 RMK AO2 SLP244 T01220000 $
Traffic Incident Summary
Active as of:
Severity:
Category:
InformationThere was an issue retrieving the traffic information for this location. Please try a different location or try again shortly.
Advertisements